createdAt,value
2023-05-21T00:01:18.044Z,3.05
2023-05-21T00:03:46.055Z,3.00
2023-05-21T00:06:15.803Z,3.15
2023-05-21T00:08:42.963Z,3.38
2023-05-21T00:11:09.891Z,3.58
2023-05-21T00:13:36.352Z,3.22
2023-05-21T00:16:02.830Z,3.17
2023-05-21T00:18:32.408Z,3.70
2023-05-21T00:20:59.286Z,3.45
2023-05-21T00:23:26.370Z,3.15
2023-05-21T00:25:53.201Z,3.90
2023-05-21T00:28:19.649Z,3.80
2023-05-21T00:30:47.287Z,3.60
2023-05-21T00:33:13.833Z,3.55
2023-05-21T00:35:40.327Z,4.18
2023-05-21T00:38:07.422Z,4.00
2023-05-21T00:40:35.272Z,3.70
2023-05-21T00:43:02.012Z,4.47
2023-05-21T00:45:29.536Z,4.13
2023-05-21T00:47:56.257Z,3.70
2023-05-21T00:50:23.467Z,4.30
2023-05-21T00:52:50.032Z,3.67
2023-05-21T00:55:16.524Z,4.00
2023-05-21T00:57:43.007Z,3.78
2023-05-21T01:00:10.624Z,3.90
2023-05-21T01:02:37.982Z,4.10
2023-05-21T01:05:08.228Z,3.90
2023-05-21T01:07:36.419Z,4.20
2023-05-21T01:10:04.179Z,4.40
2023-05-21T01:12:32.366Z,4.20
2023-05-21T01:15:00.494Z,3.78
2023-05-21T01:17:28.663Z,4.13
2023-05-21T01:19:57.474Z,4.45
2023-05-21T01:22:24.873Z,4.43
2023-05-21T01:24:52.992Z,4.38
2023-05-21T01:27:19.459Z,4.65
2023-05-21T01:29:45.946Z,4.20
2023-05-21T01:32:27.161Z,4.10
2023-05-21T01:35:04.880Z,4.30
2023-05-21T01:37:36.838Z,4.63
2023-05-21T01:40:15.068Z,4.55
2023-05-21T01:42:44.057Z,4.40
2023-05-21T01:45:10.871Z,4.13
2023-05-21T01:47:37.982Z,5.28
2023-05-21T01:50:05.684Z,4.50
2023-05-21T01:52:32.154Z,4.57
2023-05-21T01:55:00.149Z,4.70
2023-05-21T01:57:26.610Z,4.72
2023-05-21T01:59:56.231Z,4.43
2023-05-21T02:02:22.681Z,4.57
2023-05-21T02:04:50.111Z,4.88
2023-05-21T02:07:16.600Z,5.03
2023-05-21T02:09:43.070Z,4.40
2023-05-21T02:12:09.500Z,4.93
2023-05-21T02:14:36.233Z,4.63
2023-05-21T02:17:02.685Z,4.55
2023-05-21T02:19:29.322Z,4.63
2023-05-21T02:21:56.168Z,4.60
2023-05-21T02:24:24.333Z,4.43
2023-05-21T02:26:51.462Z,4.47
2023-05-21T02:29:18.329Z,4.32
2023-05-21T02:31:44.798Z,4.75
2023-05-21T02:34:11.317Z,4.43
2023-05-21T02:36:37.852Z,4.60
2023-05-21T02:39:04.297Z,4.15
2023-05-21T02:41:30.787Z,4.32
2023-05-21T02:43:57.214Z,4.43
2023-05-21T02:46:23.699Z,4.25
2023-05-21T02:48:50.289Z,4.22
2023-05-21T02:51:16.784Z,4.30
2023-05-21T02:53:43.236Z,4.18
2023-05-21T02:56:09.670Z,4.05
2023-05-21T02:58:36.148Z,4.72
2023-05-21T03:01:02.567Z,4.07
2023-05-21T03:03:29.136Z,4.28
2023-05-21T03:05:55.596Z,4.50
2023-05-21T03:08:22.153Z,4.18
2023-05-21T03:10:48.855Z,4.13
2023-05-21T03:13:15.517Z,3.95
2023-05-21T03:15:43.893Z,4.13
2023-05-21T03:18:11.762Z,4.47
2023-05-21T03:20:43.553Z,4.20
2023-05-21T03:25:42.719Z,4.07
2023-05-21T03:28:10.072Z,4.57
2023-05-21T03:30:39.058Z,4.28
2023-05-21T03:33:06.408Z,4.22
2023-05-21T03:35:33.040Z,4.40
2023-05-21T03:37:59.432Z,4.53
2023-05-21T03:40:25.891Z,5.05
2023-05-21T03:42:52.376Z,5.57
2023-05-21T03:45:18.798Z,4.95
2023-05-21T03:47:45.332Z,5.25
2023-05-21T03:50:12.321Z,5.45
2023-05-21T03:52:38.743Z,5.03
2023-05-21T03:55:06.050Z,5.05
2023-05-21T03:57:32.799Z,4.95
2023-05-21T03:59:59.306Z,5.10
2023-05-21T04:02:27.053Z,5.50
2023-05-21T04:04:53.798Z,5.95
2023-05-21T04:07:20.363Z,5.57
2023-05-21T04:09:46.979Z,5.70
2023-05-21T04:12:13.753Z,5.43
2023-05-21T04:14:40.185Z,6.05
2023-05-21T04:17:06.721Z,5.82
2023-05-21T04:19:33.218Z,5.75
2023-05-21T04:21:59.741Z,6.07
2023-05-21T04:24:26.157Z,5.45
2023-05-21T04:26:52.575Z,5.22
2023-05-21T04:29:21.103Z,5.50
2023-05-21T04:31:48.974Z,5.50
2023-05-21T04:34:18.985Z,5.72
2023-05-21T04:36:46.105Z,5.70
2023-05-21T04:39:12.947Z,6.82
2023-05-21T04:41:39.614Z,5.97
2023-05-21T04:44:09.834Z,6.15
2023-05-21T04:46:36.263Z,6.10
2023-05-21T04:49:03.089Z,6.40
2023-05-21T04:51:32.572Z,5.97
2023-05-21T04:53:59.580Z,6.38
2023-05-21T04:56:29.432Z,6.85
2023-05-21T04:58:55.950Z,6.68
2023-05-21T05:01:23.519Z,6.82
2023-05-21T05:03:50.160Z,6.10
2023-05-21T05:06:17.035Z,6.78
2023-05-21T05:08:44.268Z,5.97
2023-05-21T05:11:11.028Z,6.35
2023-05-21T05:13:37.421Z,6.72
2023-05-21T05:16:03.982Z,6.28
2023-05-21T05:18:30.442Z,6.75
2023-05-21T05:20:56.874Z,6.57
2023-05-21T05:23:23.327Z,6.72
2023-05-21T05:25:49.754Z,6.50
2023-05-21T05:28:16.344Z,6.65
2023-05-21T05:30:42.809Z,6.60
2023-05-21T05:33:09.364Z,6.13
2023-05-21T05:35:36.423Z,6.25
2023-05-21T05:38:03.090Z,6.65
2023-05-21T05:40:29.608Z,6.45
2023-05-21T05:42:56.017Z,5.95
2023-05-21T05:45:22.482Z,7.35
2023-05-21T05:47:49.068Z,6.32
2023-05-21T05:50:15.746Z,6.53
2023-05-21T05:52:42.222Z,6.57
2023-05-21T05:55:09.546Z,7.10
2023-05-21T05:57:36.043Z,6.45
2023-05-21T06:00:03.193Z,6.55
2023-05-21T06:02:29.762Z,6.72
2023-05-21T06:04:56.234Z,7.22
2023-05-21T06:07:22.665Z,6.57
2023-05-21T06:09:49.142Z,6.78
2023-05-21T06:12:15.968Z,6.55
2023-05-21T06:14:45.039Z,6.93
2023-05-21T06:17:12.202Z,6.38
2023-05-21T06:19:38.622Z,6.70
2023-05-21T06:22:05.453Z,6.85
2023-05-21T06:24:31.905Z,6.35
2023-05-21T06:26:58.468Z,6.57
2023-05-21T06:29:24.886Z,6.57
2023-05-21T06:31:51.364Z,7.28
2023-05-21T06:34:17.820Z,6.88
2023-05-21T06:36:44.311Z,7.10
2023-05-21T06:39:10.916Z,6.78
2023-05-21T06:41:37.432Z,7.20
2023-05-21T06:44:04.268Z,7.55
2023-05-21T06:46:30.947Z,6.28
2023-05-21T06:48:57.474Z,8.20
2023-05-21T06:51:23.903Z,6.72
2023-05-21T06:53:50.974Z,7.30
2023-05-21T06:56:17.443Z,7.38
2023-05-21T06:58:43.831Z,7.22
2023-05-21T07:01:11.589Z,7.05
2023-05-21T07:03:38.107Z,7.07
2023-05-21T07:06:04.540Z,7.15
2023-05-21T07:08:31.349Z,7.03
2023-05-21T07:10:57.865Z,7.05
2023-05-21T07:13:24.367Z,8.32
2023-05-21T07:15:50.848Z,7.53
2023-05-21T07:18:17.346Z,7.35
2023-05-21T07:20:43.837Z,7.20
2023-05-21T07:23:10.334Z,7.35
2023-05-21T07:25:36.928Z,7.15
2023-05-21T07:28:05.884Z,7.03
2023-05-21T07:30:33.050Z,6.32
2023-05-21T07:32:59.552Z,7.05
2023-05-21T07:35:26.107Z,7.35
2023-05-21T07:37:52.568Z,6.80
2023-05-21T07:40:19.070Z,6.55
2023-05-21T07:42:45.520Z,7.30
2023-05-21T07:45:11.974Z,6.97
2023-05-21T07:47:38.430Z,7.00
2023-05-21T07:50:05.865Z,6.57
2023-05-21T07:52:32.324Z,7.30
2023-05-21T07:54:58.777Z,7.28
2023-05-21T07:57:25.234Z,6.82
2023-05-21T07:59:51.707Z,6.97
2023-05-21T08:02:18.226Z,6.82
2023-05-21T08:04:44.734Z,6.13
2023-05-21T08:07:11.252Z,6.72
2023-05-21T08:09:37.783Z,7.63
2023-05-21T08:12:04.412Z,7.57
2023-05-21T08:14:30.872Z,7.25
2023-05-21T08:16:57.285Z,7.28
2023-05-21T08:19:23.813Z,6.53
2023-05-21T08:21:52.810Z,7.03
2023-05-21T08:24:19.614Z,7.25
2023-05-21T08:26:47.494Z,7.68
2023-05-21T08:29:14.206Z,7.93
2023-05-21T08:31:41.506Z,7.25
2023-05-21T08:34:07.993Z,6.47
2023-05-21T08:36:34.753Z,6.78
2023-05-21T08:39:01.628Z,7.40
2023-05-21T08:41:28.796Z,6.78
2023-05-21T08:43:56.665Z,6.90
2023-05-21T08:46:24.880Z,6.10
2023-05-21T08:48:52.002Z,5.68
2023-05-21T08:51:18.476Z,6.15
2023-05-21T08:53:45.730Z,6.30
2023-05-21T08:56:13.135Z,6.43
2023-05-21T08:58:42.647Z,6.88
2023-05-21T09:01:10.155Z,5.93
2023-05-21T09:03:40.428Z,6.40
2023-05-21T09:06:11.127Z,6.03
2023-05-21T09:08:39.209Z,6.22
2023-05-21T09:11:05.633Z,6.13
2023-05-21T09:13:36.841Z,7.05
2023-05-21T09:16:05.993Z,6.30
2023-05-21T09:18:32.446Z,6.32
2023-05-21T09:21:01.410Z,6.88
2023-05-21T09:23:28.819Z,6.22
2023-05-21T09:25:55.416Z,5.90
2023-05-21T09:28:21.875Z,6.25
2023-05-21T09:30:52.052Z,6.30
2023-05-21T09:33:26.103Z,5.90
2023-05-21T09:35:52.589Z,6.57
2023-05-21T09:38:22.430Z,5.70
2023-05-21T09:40:48.882Z,6.93
2023-05-21T09:43:18.442Z,6.57
2023-05-21T09:45:52.395Z,6.35
2023-05-21T09:48:33.393Z,6.38
2023-05-21T09:51:16.761Z,6.82
2023-05-21T09:53:54.448Z,7.15
2023-05-21T09:56:29.203Z,6.68
2023-05-21T09:58:56.997Z,6.25
2023-05-21T10:01:24.390Z,6.32
2023-05-21T10:03:55.963Z,6.22
2023-05-21T10:06:25.218Z,5.82
2023-05-21T10:08:54.389Z,6.70
2023-05-21T10:11:24.307Z,6.32
2023-05-21T10:13:56.055Z,6.28
2023-05-21T10:16:23.060Z,5.75
2023-05-21T10:18:54.043Z,5.50
2023-05-21T10:21:22.825Z,5.10
2023-05-21T10:23:50.048Z,5.30
2023-05-21T10:26:16.570Z,5.80
2023-05-21T10:28:43.362Z,5.95
2023-05-21T10:31:10.532Z,6.30
2023-05-21T10:33:38.490Z,6.20
2023-05-21T10:36:05.492Z,6.05
2023-05-21T10:38:32.351Z,5.55
2023-05-21T10:40:59.187Z,6.20
2023-05-21T10:43:25.558Z,5.97
2023-05-21T10:46:01.207Z,6.07
2023-05-21T10:48:42.748Z,6.72
2023-05-21T10:51:21.493Z,6.28
2023-05-21T10:54:06.112Z,6.40
2023-05-21T10:59:43.639Z,5.60
2023-05-21T11:02:11.636Z,6.20
2023-05-21T11:04:40.227Z,6.07
2023-05-21T11:07:06.870Z,6.63
2023-05-21T11:09:33.484Z,7.63
2023-05-21T11:12:00.887Z,6.20
2023-05-21T11:14:36.402Z,5.85
2023-05-21T11:17:04.671Z,5.07
2023-05-21T11:19:51.458Z,6.57
2023-05-21T11:22:22.033Z,5.45
2023-05-21T11:24:50.868Z,5.68
2023-05-21T11:27:40.814Z,5.65
2023-05-21T11:30:09.538Z,5.75
2023-05-21T11:32:40.342Z,5.93
2023-05-21T11:35:07.684Z,5.28
2023-05-21T11:37:34.760Z,5.47
2023-05-21T11:40:25.672Z,6.28
2023-05-21T11:42:53.928Z,5.90
2023-05-21T11:45:22.459Z,6.00
2023-05-21T11:47:49.808Z,6.05
2023-05-21T11:50:16.879Z,5.97
2023-05-21T11:52:44.238Z,5.38
2023-05-21T11:55:11.375Z,6.13
2023-05-21T11:57:38.188Z,5.30
2023-05-21T12:00:13.843Z,5.90
2023-05-21T12:02:45.179Z,6.47
2023-05-21T12:07:39.867Z,5.82
2023-05-21T12:10:06.912Z,5.78
2023-05-21T12:12:49.956Z,7.57
2023-05-21T12:15:20.307Z,5.70
2023-05-21T12:17:49.882Z,6.30
2023-05-21T12:20:16.550Z,6.95
2023-05-21T12:22:43.610Z,6.30
2023-05-21T12:25:10.726Z,6.45
2023-05-21T12:27:37.241Z,6.63
2023-05-21T12:30:04.007Z,6.68
2023-05-21T12:32:30.783Z,6.53
2023-05-21T12:34:57.308Z,6.53
2023-05-21T12:37:27.855Z,6.97
2023-05-21T12:39:55.628Z,6.80
2023-05-21T12:42:27.139Z,6.05
2023-05-21T12:44:54.328Z,6.65
2023-05-21T12:47:23.865Z,6.55
2023-05-21T12:49:53.086Z,5.63
2023-05-21T12:52:21.287Z,5.45
2023-05-21T12:54:53.775Z,6.13
2023-05-21T12:57:25.598Z,6.20
2023-05-21T12:59:59.362Z,6.13
2023-05-21T13:02:33.721Z,6.38
2023-05-21T13:05:01.061Z,5.68
2023-05-21T13:07:29.012Z,5.43
2023-05-21T13:09:55.863Z,5.13
2023-05-21T13:12:23.923Z,5.80
2023-05-21T13:14:51.264Z,5.55
2023-05-21T13:17:18.448Z,5.45
2023-05-21T13:20:04.636Z,4.70
2023-05-21T13:22:31.088Z,4.47
2023-05-21T13:24:57.699Z,4.57
2023-05-21T13:27:24.170Z,4.28
2023-05-21T13:29:50.671Z,4.70
2023-05-21T13:32:18.732Z,4.90
2023-05-21T13:34:45.136Z,4.75
2023-05-21T13:37:11.586Z,4.40
2023-05-21T13:39:38.047Z,4.22
2023-05-21T13:42:05.749Z,4.78
2023-05-21T13:44:36.586Z,4.40
2023-05-21T13:47:03.806Z,4.47
2023-05-21T13:49:30.576Z,4.13
2023-05-21T13:51:58.135Z,5.35
2023-05-21T13:54:24.862Z,4.20
2023-05-21T13:56:51.346Z,5.80
2023-05-21T13:59:17.839Z,4.47
2023-05-21T14:01:45.302Z,4.93
2023-05-21T14:04:12.188Z,5.20
2023-05-21T14:06:38.610Z,4.63
2023-05-21T14:09:05.631Z,5.60
2023-05-21T14:11:32.236Z,6.15
2023-05-21T14:13:58.757Z,4.90
2023-05-21T14:16:27.335Z,4.93
2023-05-21T14:18:54.875Z,5.13
2023-05-21T14:21:21.486Z,5.30
2023-05-21T14:23:48.281Z,5.05
2023-05-21T14:26:17.903Z,4.50
2023-05-21T14:28:44.920Z,4.53
2023-05-21T14:31:12.059Z,5.70
2023-05-21T14:33:38.788Z,6.13
2023-05-21T14:36:05.854Z,5.75
2023-05-21T14:38:32.292Z,5.78
2023-05-21T14:40:58.712Z,5.53
2023-05-21T14:43:25.129Z,7.05
2023-05-21T14:45:51.581Z,6.45
2023-05-21T14:48:18.567Z,6.40
2023-05-21T14:50:45.062Z,5.85
2023-05-21T14:53:12.070Z,5.82
2023-05-21T14:55:39.030Z,6.10
2023-05-21T14:58:06.160Z,6.60
2023-05-21T15:00:33.912Z,6.45
2023-05-21T15:03:00.574Z,5.90
2023-05-21T15:05:30.590Z,6.32
2023-05-21T15:07:57.550Z,6.28
2023-05-21T15:10:25.082Z,6.45
2023-05-21T15:12:51.939Z,6.00
2023-05-21T15:15:20.796Z,5.40
2023-05-21T15:17:48.099Z,4.47
2023-05-21T15:20:14.939Z,5.25
2023-05-21T15:22:41.565Z,5.63
2023-05-21T15:25:08.537Z,4.68
2023-05-21T15:27:34.975Z,4.75
2023-05-21T15:30:02.096Z,4.88
2023-05-21T15:32:28.801Z,4.97
2023-05-21T15:34:55.399Z,5.78
2023-05-21T15:37:21.872Z,5.18
2023-05-21T15:39:53.173Z,6.28
2023-05-21T15:42:19.622Z,5.03
2023-05-21T15:44:46.289Z,5.93
2023-05-21T15:47:12.763Z,5.05
2023-05-21T15:49:39.236Z,5.70
2023-05-21T15:52:06.159Z,5.93
2023-05-21T15:54:32.659Z,6.45
2023-05-21T15:56:59.165Z,6.05
2023-05-21T15:59:25.756Z,6.82
2023-05-21T16:01:52.342Z,6.18
2023-05-21T16:04:21.704Z,7.00
2023-05-21T16:06:48.217Z,6.68
2023-05-21T16:09:15.037Z,7.57
2023-05-21T16:11:41.486Z,7.10
2023-05-21T16:14:07.896Z,6.38
2023-05-21T16:16:34.419Z,6.45
2023-05-21T16:19:01.789Z,7.20
2023-05-21T16:21:28.322Z,7.50
2023-05-21T16:23:54.757Z,7.63
2023-05-21T16:26:21.435Z,7.18
2023-05-21T16:28:47.941Z,7.43
2023-05-21T16:31:14.365Z,6.60
2023-05-21T16:33:40.823Z,8.43
2023-05-21T16:36:07.399Z,8.05
2023-05-21T16:38:33.842Z,7.95
2023-05-21T16:41:00.331Z,8.25
2023-05-21T16:43:26.807Z,8.38
2023-05-21T16:45:53.505Z,8.60
2023-05-21T16:48:20.041Z,7.82
2023-05-21T16:50:49.421Z,8.90
2023-05-21T16:53:16.246Z,8.88
2023-05-21T16:55:43.740Z,8.70
2023-05-21T16:58:13.427Z,8.65
2023-05-21T17:00:39.891Z,9.07
2023-05-21T17:03:06.509Z,9.00
2023-05-21T17:05:33.020Z,9.30
2023-05-21T17:07:59.841Z,9.68
2023-05-21T17:10:26.367Z,9.85
2023-05-21T17:12:52.808Z,9.70
2023-05-21T17:15:19.294Z,9.98
2023-05-21T17:17:45.773Z,10.82
2023-05-21T17:20:12.678Z,9.20
2023-05-21T17:22:39.265Z,10.63
2023-05-21T17:25:06.244Z,9.73
2023-05-21T17:27:32.940Z,10.30
2023-05-21T17:29:59.530Z,10.40
2023-05-21T17:32:26.022Z,10.45
2023-05-21T17:34:53.781Z,10.00
2023-05-21T17:37:20.263Z,10.82
2023-05-21T17:39:46.734Z,11.18
2023-05-21T17:42:13.151Z,11.48
2023-05-21T17:44:39.597Z,10.73
2023-05-21T17:47:06.704Z,10.15
2023-05-21T17:49:33.290Z,10.38
2023-05-21T17:52:00.705Z,10.45
2023-05-21T17:54:27.344Z,10.50
2023-05-21T17:56:53.773Z,9.95
2023-05-21T17:59:21.357Z,9.65
2023-05-21T18:01:47.856Z,12.35
2023-05-21T18:04:14.398Z,10.57
2023-05-21T18:06:40.884Z,11.57
2023-05-21T18:09:07.848Z,11.65
2023-05-21T18:11:34.648Z,12.38
2023-05-21T18:14:01.098Z,11.23
2023-05-21T18:16:30.184Z,11.05
2023-05-21T18:18:57.248Z,12.05
2023-05-21T18:21:23.816Z,11.60
2023-05-21T18:23:50.270Z,12.27
2023-05-21T18:26:16.734Z,11.95
2023-05-21T18:28:43.266Z,12.30
2023-05-21T18:31:09.747Z,11.40
2023-05-21T18:33:36.219Z,13.38
2023-05-21T18:36:02.681Z,12.02
2023-05-21T18:38:29.135Z,10.77
2023-05-21T18:40:55.595Z,11.60
2023-05-21T18:43:22.052Z,10.93
2023-05-21T18:45:48.546Z,10.13
2023-05-21T18:48:15.036Z,10.88
2023-05-21T18:50:41.585Z,10.40
2023-05-21T18:53:08.062Z,10.05
2023-05-21T18:55:34.808Z,10.85
2023-05-21T18:58:01.395Z,11.25
2023-05-21T19:00:27.899Z,10.75
2023-05-21T19:02:55.376Z,10.43
2023-05-21T19:05:22.130Z,11.30
2023-05-21T19:07:48.661Z,12.43
2023-05-21T19:10:15.165Z,11.75
2023-05-21T19:12:42.826Z,11.30
2023-05-21T19:15:10.047Z,12.32
2023-05-21T19:17:38.859Z,11.35
2023-05-21T19:20:09.270Z,11.00
2023-05-21T19:22:37.065Z,11.15
2023-05-21T19:25:04.049Z,11.40
2023-05-21T19:27:30.508Z,12.23
2023-05-21T19:29:56.931Z,12.40
2023-05-21T19:32:23.742Z,11.70
2023-05-21T19:34:51.565Z,11.70
2023-05-21T19:37:18.347Z,10.95
2023-05-21T19:39:49.547Z,12.63
2023-05-21T19:42:17.213Z,11.73
2023-05-21T19:44:43.699Z,12.55
2023-05-21T19:47:10.184Z,13.35
2023-05-21T19:49:36.674Z,12.25
2023-05-21T19:52:03.167Z,12.43
2023-05-21T19:54:29.588Z,12.13
2023-05-21T19:56:56.730Z,11.93
2023-05-21T19:59:23.150Z,12.27
2023-05-21T20:01:49.680Z,12.93
2023-05-21T20:04:16.210Z,12.52
2023-05-21T20:06:42.722Z,13.82
2023-05-21T20:09:10.776Z,12.15
2023-05-21T20:11:37.232Z,12.68
2023-05-21T20:14:04.359Z,12.73
2023-05-21T20:16:31.326Z,12.95
2023-05-21T20:18:58.308Z,13.38
2023-05-21T20:21:25.007Z,13.07
2023-05-21T20:23:51.472Z,13.80
2023-05-21T20:26:19.067Z,13.15
2023-05-21T20:28:46.178Z,13.30
2023-05-21T20:31:12.883Z,14.50
2023-05-21T20:33:42.227Z,13.85
2023-05-21T20:36:08.704Z,14.48
2023-05-21T20:38:37.167Z,14.80
2023-05-21T20:41:04.265Z,13.45
2023-05-21T20:43:30.722Z,14.30
2023-05-21T20:45:59.585Z,13.75
2023-05-21T20:48:29.376Z,14.93
2023-05-21T20:50:57.348Z,14.50
2023-05-21T20:53:24.751Z,15.02
2023-05-21T20:55:52.642Z,13.80
2023-05-21T20:58:19.083Z,14.73
2023-05-21T21:00:48.345Z,13.02
2023-05-21T21:03:17.657Z,14.77
2023-05-21T21:05:44.656Z,15.15
2023-05-21T21:08:12.164Z,14.82
2023-05-21T21:10:41.225Z,14.57
2023-05-21T21:13:08.003Z,15.02
2023-05-21T21:15:34.801Z,14.77
2023-05-21T21:18:01.425Z,14.88
2023-05-21T21:20:28.037Z,15.80
2023-05-21T21:22:54.529Z,15.60
2023-05-21T21:25:21.043Z,16.55
2023-05-21T21:27:47.512Z,16.63
2023-05-21T21:30:14.005Z,15.48
2023-05-21T21:32:41.170Z,16.05
2023-05-21T21:35:07.918Z,15.80
2023-05-21T21:37:34.422Z,16.90
2023-05-21T21:40:00.907Z,16.33
2023-05-21T21:42:27.381Z,15.40
2023-05-21T21:44:53.855Z,16.08
2023-05-21T21:47:20.318Z,16.02
2023-05-21T21:49:48.022Z,14.68
2023-05-21T21:52:14.680Z,16.10
2023-05-21T21:54:41.164Z,16.17
2023-05-21T21:57:07.580Z,16.45
2023-05-21T21:59:34.477Z,17.67
2023-05-21T22:02:01.184Z,16.55
2023-05-21T22:04:27.853Z,16.70
2023-05-21T22:06:54.401Z,15.77
2023-05-21T22:09:22.516Z,16.08
2023-05-21T22:11:49.159Z,17.33
2023-05-21T22:14:15.902Z,16.65
2023-05-21T22:16:43.225Z,17.15
2023-05-21T22:19:10.071Z,16.70
2023-05-21T22:21:36.838Z,17.58
2023-05-21T22:24:04.017Z,17.40
2023-05-21T22:26:30.534Z,18.20
2023-05-21T22:28:59.045Z,18.00
2023-05-21T22:31:26.694Z,17.48
2023-05-21T22:33:53.268Z,18.65
2023-05-21T22:36:19.766Z,18.60
2023-05-21T22:38:46.217Z,19.85
2023-05-21T22:41:12.666Z,19.55
2023-05-21T22:43:39.129Z,21.30
2023-05-21T22:46:05.730Z,20.25
2023-05-21T22:48:32.178Z,19.33
2023-05-21T22:50:58.662Z,19.40
2023-05-21T22:53:25.668Z,20.50
2023-05-21T22:55:52.323Z,18.83
2023-05-21T22:58:18.961Z,19.80
2023-05-21T23:00:46.850Z,21.20
2023-05-21T23:03:13.331Z,19.98
2023-05-21T23:05:40.027Z,19.83
2023-05-21T23:08:06.719Z,20.52
2023-05-21T23:10:34.034Z,20.65
2023-05-21T23:13:00.596Z,19.60
2023-05-21T23:15:29.431Z,21.63
2023-05-21T23:17:56.998Z,21.27
2023-05-21T23:20:24.901Z,20.50
2023-05-21T23:22:51.906Z,23.15
2023-05-21T23:25:18.375Z,22.40
2023-05-21T23:27:44.970Z,21.90
2023-05-21T23:30:12.043Z,20.90
2023-05-21T23:32:38.664Z,20.70
2023-05-21T23:35:05.505Z,19.95
2023-05-21T23:37:32.084Z,20.58
2023-05-21T23:39:58.563Z,20.13
2023-05-21T23:42:25.037Z,19.30
2023-05-21T23:44:51.436Z,20.17
2023-05-21T23:47:17.899Z,19.77
2023-05-21T23:49:44.301Z,20.13
2023-05-21T23:52:13.416Z,19.27
2023-05-21T23:54:39.873Z,18.42
2023-05-21T23:57:06.373Z,19.02
2023-05-21T23:59:32.877Z,20.20
